createdAt,value
2023-05-02T00:00:42.956Z,97431.16
2023-05-02T00:03:11.829Z,97446.72
2023-05-02T00:05:40.787Z,97448.19
2023-05-02T00:08:08.940Z,97436.34
2023-05-02T00:10:37.014Z,97442.97
2023-05-02T00:13:06.551Z,97430.34
2023-05-02T00:15:34.764Z,97433.56
2023-05-02T00:18:02.835Z,97435.88
2023-05-02T00:20:31.006Z,97444.53
2023-05-02T00:22:59.140Z,97447.44
2023-05-02T00:25:27.307Z,97442.22
2023-05-02T00:27:56.422Z,97435.09
2023-05-02T00:30:25.990Z,97431.53
2023-05-02T00:32:54.927Z,97422.13
2023-05-02T00:35:23.051Z,97418.56
2023-05-02T00:37:51.118Z,97428.25
2023-05-02T00:40:19.530Z,97424.50
2023-05-02T00:42:47.613Z,97425.50
2023-05-02T00:45:15.939Z,97417.72
2023-05-02T00:47:45.673Z,97420.44
2023-05-02T00:50:13.816Z,97418.78
2023-05-02T00:52:42.410Z,97400.75
2023-05-02T00:55:10.819Z,97421.53
2023-05-02T00:57:39.578Z,97424.44
2023-05-02T01:00:09.126Z,97420.88
2023-05-02T01:02:50.131Z,97427.22
2023-05-02T01:05:26.003Z,97424.44
2023-05-02T01:08:04.580Z,97418.25
2023-05-02T01:10:48.926Z,97419.19
2023-05-02T01:13:22.161Z,97420.25
2023-05-02T01:15:52.100Z,97410.59
2023-05-02T01:18:25.044Z,97413.22
2023-05-02T01:20:58.613Z,97417.63
2023-05-02T01:23:34.143Z,97416.63
2023-05-02T01:26:15.073Z,97399.19
2023-05-02T01:28:58.578Z,97393.94
2023-05-02T01:31:28.220Z,97410.50
2023-05-02T01:33:57.986Z,97405.09
2023-05-02T01:36:30.384Z,97407.03
2023-05-02T01:39:00.184Z,97401.59
2023-05-02T01:41:30.263Z,97405.59
2023-05-02T01:44:01.376Z,97391.75
2023-05-02T01:46:34.181Z,97323.72
2023-05-02T01:49:05.211Z,97312.59
2023-05-02T01:51:35.916Z,97400.59
2023-05-02T01:54:07.340Z,97368.38
2023-05-02T01:56:37.667Z,97405.78
2023-05-02T01:59:09.997Z,97401.28
2023-05-02T02:01:40.585Z,97416.13
2023-05-02T02:04:12.331Z,97393.63
2023-05-02T02:06:40.884Z,97327.44
2023-05-02T02:09:09.026Z,97391.44
2023-05-02T02:11:45.149Z,97373.34
2023-05-02T02:14:21.248Z,97369.91
2023-05-02T02:16:51.416Z,97392.88
2023-05-02T02:19:20.342Z,97387.81
2023-05-02T02:21:50.537Z,97390.44
2023-05-02T02:24:19.925Z,97391.44
2023-05-02T02:26:48.020Z,97393.13
2023-05-02T02:29:17.459Z,97392.13
2023-05-02T02:31:45.635Z,97387.88
2023-05-02T02:34:14.005Z,97401.81
2023-05-02T02:36:49.106Z,97398.41
2023-05-02T02:39:31.566Z,97399.34
2023-05-02T02:42:13.223Z,97392.28
2023-05-02T02:44:51.831Z,97377.59
2023-05-02T02:47:27.886Z,97399.00
2023-05-02T02:50:10.942Z,97403.59
2023-05-02T02:52:49.723Z,97400.91
2023-05-02T02:55:25.644Z,97400.84
2023-05-02T02:58:01.387Z,97388.19
2023-05-02T03:00:33.884Z,97389.47
2023-05-02T03:03:02.207Z,97395.44
2023-05-02T03:05:32.106Z,97391.25
2023-05-02T03:08:01.206Z,97411.22
2023-05-02T03:10:29.336Z,97408.56
2023-05-02T03:12:57.458Z,97407.22
2023-05-02T03:15:51.085Z,97417.88
2023-05-02T03:18:19.389Z,97412.75
2023-05-02T03:20:47.572Z,97410.78
2023-05-02T03:23:15.777Z,97413.41
2023-05-02T03:25:44.006Z,97414.28
2023-05-02T03:28:12.423Z,97410.53
2023-05-02T03:30:42.056Z,97402.94
2023-05-02T03:33:10.380Z,97415.91
2023-05-02T03:35:38.654Z,97417.69
2023-05-02T03:38:06.869Z,97392.03
2023-05-02T03:40:35.085Z,97422.88
2023-05-02T03:43:03.172Z,97421.16
2023-05-02T03:45:31.262Z,97427.75
2023-05-02T03:48:00.977Z,97414.97
2023-05-02T03:50:29.105Z,97406.38
2023-05-02T03:52:57.272Z,97429.66
2023-05-02T03:55:25.336Z,97367.16
2023-05-02T03:57:53.432Z,97431.59
2023-05-02T04:00:22.292Z,97424.63
2023-05-02T04:02:50.745Z,97427.88
2023-05-02T04:05:20.677Z,97426.06
2023-05-02T04:07:48.760Z,97416.50
2023-05-02T04:10:18.387Z,97426.97
2023-05-02T04:12:46.597Z,97426.31
2023-05-02T04:15:14.885Z,97408.19
2023-05-02T04:17:43.077Z,97431.31
2023-05-02T04:20:12.815Z,97423.03
2023-05-02T04:22:42.373Z,97434.88
2023-05-02T04:25:10.894Z,97442.63
2023-05-02T04:27:39.333Z,97439.75
2023-05-02T04:30:10.001Z,97433.69
2023-05-02T04:32:38.328Z,97430.78
2023-05-02T04:35:07.327Z,97435.25
2023-05-02T04:37:35.589Z,97434.31
2023-05-02T04:40:06.294Z,97437.69
2023-05-02T04:42:34.383Z,97444.75
2023-05-02T04:45:02.512Z,97416.97
2023-05-02T04:47:30.669Z,97445.91
2023-05-02T04:49:58.937Z,97438.44
2023-05-02T04:52:27.357Z,97427.56
2023-05-02T04:54:55.654Z,97432.75
2023-05-02T04:57:25.243Z,97448.09
2023-05-02T04:59:53.364Z,97467.97
2023-05-02T05:02:21.583Z,97473.97
2023-05-02T05:04:49.675Z,97478.25
2023-05-02T05:07:17.837Z,97477.59
2023-05-02T05:09:45.919Z,97476.06
2023-05-02T05:12:14.032Z,97477.84
2023-05-02T05:14:44.516Z,97482.00
2023-05-02T05:17:12.699Z,97486.66
2023-05-02T05:19:40.906Z,97487.00
2023-05-02T05:22:09.986Z,97480.06
2023-05-02T05:24:39.283Z,97477.72
2023-05-02T05:27:07.467Z,97442.56
2023-05-02T05:29:35.659Z,97481.41
2023-05-02T05:32:06.079Z,97470.88
2023-05-02T05:34:34.597Z,97494.69
2023-05-02T05:37:03.362Z,97442.88
2023-05-02T05:39:33.056Z,97452.44
2023-05-02T05:42:02.696Z,97496.00
2023-05-02T05:44:31.931Z,97499.22
2023-05-02T05:47:00.180Z,97487.34
2023-05-02T05:49:29.865Z,97492.72
2023-05-02T05:51:58.147Z,97488.53
2023-05-02T05:54:26.640Z,97516.81
2023-05-02T05:56:54.806Z,97510.31
2023-05-02T05:59:22.943Z,97519.06
2023-05-02T06:01:51.166Z,97501.31
2023-05-02T06:04:19.315Z,97492.47
2023-05-02T06:06:49.008Z,97518.06
2023-05-02T06:09:17.363Z,97522.69
2023-05-02T06:11:45.707Z,97535.81
2023-05-02T06:14:13.987Z,97534.13
2023-05-02T06:16:42.640Z,97529.28
2023-05-02T06:19:11.059Z,97546.41
2023-05-02T06:21:39.311Z,97534.81
2023-05-02T06:24:09.176Z,97556.25
2023-05-02T06:26:37.425Z,97547.66
2023-05-02T06:29:05.644Z,97553.41
2023-05-02T06:31:33.969Z,97312.69
2023-05-02T06:34:02.172Z,97562.16
2023-05-02T06:36:30.512Z,97563.00
2023-05-02T06:38:58.766Z,97566.03
2023-05-02T06:41:28.474Z,97300.16
2023-05-02T06:43:56.809Z,97560.06
2023-05-02T06:46:25.126Z,97472.31
2023-05-02T06:48:53.313Z,97561.75
2023-05-02T06:51:22.690Z,97562.84
2023-05-02T06:53:50.977Z,97568.97
2023-05-02T06:56:19.205Z,97544.06
2023-05-02T06:58:48.927Z,97552.19
2023-05-02T07:01:17.071Z,97554.63
2023-05-02T07:03:45.209Z,97550.66
2023-05-02T07:06:13.500Z,97550.72
2023-05-02T07:08:41.866Z,97545.13
2023-05-02T07:11:10.037Z,97532.91
2023-05-02T07:13:38.268Z,97468.59
2023-05-02T07:16:09.055Z,97548.53
2023-05-02T07:18:37.399Z,97543.00
2023-05-02T07:21:05.943Z,97546.84
2023-05-02T07:23:34.145Z,97483.41
2023-05-02T07:26:03.753Z,97566.25
2023-05-02T07:28:33.140Z,97565.78
2023-05-02T07:31:01.244Z,97490.44
2023-05-02T07:33:30.948Z,97582.19
2023-05-02T07:35:59.328Z,97576.53
2023-05-02T07:38:29.098Z,97585.59
2023-05-02T07:41:00.115Z,97584.81
2023-05-02T07:43:28.540Z,97588.06
2023-05-02T07:45:56.863Z,97560.25
2023-05-02T07:48:27.614Z,97584.59
2023-05-02T07:50:58.566Z,97569.59
2023-05-02T07:53:26.865Z,97586.06
2023-05-02T07:55:55.085Z,97579.66
2023-05-02T07:58:23.247Z,97594.09
2023-05-02T08:00:51.571Z,97483.56
2023-05-02T08:03:19.798Z,97570.72
2023-05-02T08:05:48.200Z,97590.28
2023-05-02T08:08:17.919Z,97580.66
2023-05-02T08:10:46.565Z,97588.81
2023-05-02T08:13:14.778Z,97579.88
2023-05-02T08:15:43.008Z,97606.81
2023-05-02T08:18:11.196Z,97576.16
2023-05-02T08:20:39.618Z,97597.84
2023-05-02T08:23:07.857Z,97596.66
2023-05-02T08:25:38.179Z,97583.56
2023-05-02T08:28:06.377Z,97603.78
2023-05-02T08:30:34.679Z,97604.25
2023-05-02T08:33:03.076Z,97610.13
2023-05-02T08:35:31.365Z,97609.97
2023-05-02T08:37:59.573Z,97610.13
2023-05-02T08:40:40.784Z,97601.47
2023-05-02T08:43:12.645Z,97611.56
2023-05-02T08:45:42.981Z,97520.69
2023-05-02T08:48:12.865Z,97613.63
2023-05-02T08:50:42.624Z,97564.72
2023-05-02T08:53:11.990Z,97614.00
2023-05-02T08:55:41.455Z,97527.38
2023-05-02T08:58:12.417Z,97570.50
2023-05-02T09:00:43.435Z,97587.66
2023-05-02T09:03:23.881Z,97598.44
2023-05-02T09:05:55.610Z,97583.53
2023-05-02T09:08:24.997Z,97617.78
2023-05-02T09:10:53.538Z,97620.16
2023-05-02T09:13:33.872Z,97623.22
2023-05-02T09:16:03.600Z,97583.84
2023-05-02T09:18:33.347Z,97613.50
2023-05-02T09:21:02.574Z,97614.75
2023-05-02T09:23:38.610Z,97625.03
2023-05-02T09:26:15.158Z,97559.72
2023-05-02T09:28:46.369Z,97634.84
2023-05-02T09:31:22.971Z,97640.06
2023-05-02T09:34:10.727Z,97644.66
2023-05-02T09:36:42.175Z,97631.16
2023-05-02T09:39:13.740Z,97635.22
2023-05-02T09:41:42.978Z,97491.28
2023-05-02T09:44:13.858Z,97647.75
2023-05-02T09:46:43.117Z,97626.28
2023-05-02T09:49:11.572Z,97599.59
2023-05-02T09:51:39.932Z,97630.63
2023-05-02T09:54:08.396Z,97624.47
2023-05-02T09:56:53.878Z,97631.28
2023-05-02T09:59:24.061Z,97601.53
2023-05-02T10:01:59.340Z,97569.06
2023-05-02T10:04:29.019Z,97544.47
2023-05-02T10:06:58.687Z,97622.13
2023-05-02T10:09:27.853Z,97626.91
2023-05-02T10:11:58.081Z,97614.84
2023-05-02T10:14:29.746Z,97625.75
2023-05-02T10:17:05.402Z,97589.75
2023-05-02T10:19:40.740Z,97618.09
2023-05-02T10:22:10.125Z,97591.53
2023-05-02T10:24:41.432Z,97610.91
2023-05-02T10:27:10.157Z,97604.47
2023-05-02T10:29:41.817Z,97611.69
2023-05-02T10:32:10.855Z,97610.38
2023-05-02T10:34:41.826Z,97558.72
2023-05-02T10:37:10.154Z,97615.38
2023-05-02T10:39:38.753Z,97617.69
2023-05-02T10:42:08.328Z,97598.19
2023-05-02T10:44:37.373Z,97609.94
2023-05-02T10:47:22.774Z,97603.94
2023-05-02T10:49:55.507Z,97616.38
2023-05-02T10:52:31.908Z,97595.66
2023-05-02T10:55:17.195Z,97625.69
2023-05-02T10:58:24.878Z,97626.38
2023-05-02T11:00:53.265Z,97624.38
2023-05-02T11:03:58.765Z,97623.53
2023-05-02T11:06:28.361Z,97600.78
2023-05-02T11:09:34.399Z,97637.09
2023-05-02T11:12:06.206Z,97559.00
2023-05-02T11:14:48.784Z,97626.44
2023-05-02T11:17:18.620Z,97623.38
2023-05-02T11:20:27.725Z,97632.16
2023-05-02T11:22:59.799Z,97602.19
2023-05-02T11:25:33.602Z,97627.53
2023-05-02T11:28:02.452Z,97622.13
2023-05-02T11:30:42.108Z,97614.19
2023-05-02T11:33:18.414Z,97627.47
2023-05-02T11:35:47.424Z,97619.41
2023-05-02T11:38:18.794Z,97544.00
2023-05-02T11:40:55.123Z,97626.25
2023-05-02T11:43:27.139Z,97641.09
2023-05-02T11:45:57.501Z,97631.00
2023-05-02T11:48:27.872Z,97646.31
2023-05-02T11:50:58.452Z,97637.91
2023-05-02T11:53:30.090Z,97641.09
2023-05-02T11:55:59.810Z,97621.84
2023-05-02T11:58:30.297Z,97647.25
2023-05-02T12:00:58.519Z,97631.81
2023-05-02T12:03:30.711Z,97613.63
2023-05-02T12:06:09.588Z,97630.50
2023-05-02T12:08:40.510Z,97664.00
2023-05-02T12:11:10.349Z,97648.44
2023-05-02T12:13:46.551Z,97656.31
2023-05-02T12:16:15.288Z,97612.84
2023-05-02T12:18:44.086Z,97657.31
2023-05-02T12:21:12.566Z,97651.63
2023-05-02T12:23:43.243Z,97670.72
2023-05-02T12:26:22.232Z,97668.28
2023-05-02T12:28:51.773Z,97678.16
2023-05-02T12:31:20.124Z,97679.31
2023-05-02T12:33:51.005Z,97679.31
2023-05-02T12:36:19.620Z,97682.09
2023-05-02T12:38:55.016Z,97676.75
2023-05-02T12:41:33.333Z,97685.66
2023-05-02T12:44:01.952Z,97685.38
2023-05-02T12:46:32.772Z,97684.84
2023-05-02T12:49:06.688Z,97684.41
2023-05-02T12:51:35.089Z,97691.19
2023-05-02T12:54:05.128Z,97697.34
2023-05-02T12:56:40.791Z,97712.00
2023-05-02T12:59:09.663Z,97710.56
2023-05-02T13:01:38.177Z,97701.72
2023-05-02T13:04:06.852Z,97698.78
2023-05-02T13:06:37.897Z,97719.19
2023-05-02T13:09:07.968Z,97716.94
2023-05-02T13:11:36.734Z,97703.50
2023-05-02T13:14:06.065Z,97653.47
2023-05-02T13:16:36.840Z,97710.69
2023-05-02T13:19:05.860Z,97702.34
2023-05-02T13:21:34.176Z,97719.84
2023-05-02T13:24:04.332Z,97664.81
2023-05-02T13:26:34.273Z,97714.28
2023-05-02T13:29:02.588Z,97719.38
2023-05-02T13:31:30.898Z,97668.13
2023-05-02T13:33:59.243Z,97658.41
2023-05-02T13:36:27.372Z,97706.22
2023-05-02T13:38:55.594Z,97713.03
2023-05-02T13:41:24.622Z,97694.69
2023-05-02T13:43:54.460Z,97712.03
2023-05-02T13:46:22.754Z,97717.84
2023-05-02T13:48:50.945Z,97663.25
2023-05-02T13:51:19.201Z,97721.00
2023-05-02T13:53:47.378Z,97715.88
2023-05-02T13:56:16.211Z,97720.75
2023-05-02T13:58:44.474Z,97715.22
2023-05-02T14:01:14.195Z,97705.53
2023-05-02T14:03:42.599Z,97719.47
2023-05-02T14:06:11.029Z,97698.81
2023-05-02T14:08:39.277Z,97717.63
2023-05-02T14:11:07.563Z,97698.78
2023-05-02T14:13:37.177Z,97718.19
2023-05-02T14:16:06.064Z,97725.25
2023-05-02T14:18:35.732Z,97728.38
2023-05-02T14:21:04.514Z,97682.63
2023-05-02T14:23:32.743Z,97727.22
2023-05-02T14:26:02.170Z,97671.25
2023-05-02T14:28:30.375Z,97720.03
2023-05-02T14:30:58.591Z,97736.28
2023-05-02T14:33:27.110Z,97723.09
2023-05-02T14:35:56.823Z,97734.56
2023-05-02T14:38:24.949Z,97686.25
2023-05-02T14:40:53.231Z,97694.06
2023-05-02T14:43:21.472Z,97726.22
2023-05-02T14:45:49.724Z,97725.66
2023-05-02T14:48:18.109Z,97733.03
2023-05-02T14:50:46.466Z,97714.69
2023-05-02T14:53:16.386Z,97707.78
2023-05-02T14:55:45.074Z,97722.31
2023-05-02T14:58:19.381Z,97719.16
2023-05-02T15:00:48.300Z,97722.50
2023-05-02T15:03:16.678Z,97738.13
2023-05-02T15:05:45.574Z,97741.88
2023-05-02T15:08:15.353Z,97736.59
2023-05-02T15:10:43.736Z,97700.41
2023-05-02T15:13:12.085Z,97743.38
2023-05-02T15:15:40.334Z,97735.66
2023-05-02T15:18:08.668Z,97739.13
2023-05-02T15:20:36.904Z,97716.53
2023-05-02T15:23:05.141Z,97729.13
2023-05-02T15:25:34.805Z,97729.06
2023-05-02T15:28:03.318Z,97737.94
2023-05-02T15:30:31.712Z,97743.22
2023-05-02T15:32:59.939Z,97730.28
2023-05-02T15:35:28.157Z,97737.53
2023-05-02T15:37:57.066Z,97718.47
2023-05-02T15:40:26.467Z,97747.13
2023-05-02T15:42:56.342Z,97745.88
2023-05-02T15:45:24.666Z,97722.75
2023-05-02T15:47:52.924Z,97741.72
2023-05-02T15:50:21.066Z,97746.69
2023-05-02T15:52:49.467Z,97742.28
2023-05-02T15:55:18.038Z,97742.56
2023-05-02T15:57:46.268Z,97737.31
2023-05-02T16:00:18.098Z,97723.25
2023-05-02T16:02:46.438Z,97705.03
2023-05-02T16:05:15.016Z,97745.97
2023-05-02T16:07:43.335Z,97747.84
2023-05-02T16:10:11.938Z,97748.69
2023-05-02T16:12:40.201Z,97739.16
2023-05-02T16:15:09.708Z,97750.44
2023-05-02T16:17:39.453Z,97749.69
2023-05-02T16:20:09.281Z,97685.16
2023-05-02T16:22:38.288Z,97660.38
2023-05-02T16:25:07.218Z,97756.44
2023-05-02T16:27:35.620Z,97706.59
2023-05-02T16:30:04.192Z,97756.56
2023-05-02T16:32:32.796Z,97719.47
2023-05-02T16:35:02.456Z,97721.25
2023-05-02T16:37:30.613Z,97755.78
2023-05-02T16:40:01.186Z,97735.38
2023-05-02T16:42:29.841Z,97697.91
2023-05-02T16:44:58.144Z,97739.53
2023-05-02T16:47:26.983Z,97786.44
2023-05-02T16:49:55.646Z,97767.97
2023-05-02T16:52:25.840Z,97756.66
2023-05-02T16:54:54.251Z,97759.38
2023-05-02T16:57:23.376Z,97764.69
2023-05-02T16:59:52.826Z,97691.47
2023-05-02T17:02:22.229Z,97762.00
2023-05-02T17:04:50.926Z,97725.94
2023-05-02T17:07:19.289Z,97760.31
2023-05-02T17:09:48.904Z,97771.59
2023-05-02T17:12:22.577Z,97706.53
2023-05-02T17:14:51.775Z,97777.97
2023-05-02T17:17:23.464Z,97798.91
2023-05-02T17:19:52.514Z,97792.09
2023-05-02T17:22:21.476Z,97786.22
2023-05-02T17:24:54.210Z,97805.56
2023-05-02T17:27:22.568Z,97792.47
2023-05-02T17:29:50.958Z,97707.84
2023-05-02T17:32:19.219Z,97776.72
2023-05-02T17:34:47.519Z,97819.13
2023-05-02T17:37:19.491Z,97875.00
2023-05-02T17:39:48.043Z,97742.47
2023-05-02T17:42:17.754Z,97814.72
2023-05-02T17:44:47.865Z,97740.44
2023-05-02T17:47:18.163Z,97778.91
2023-05-02T17:49:48.815Z,97833.34
2023-05-02T17:52:17.150Z,97779.38
2023-05-02T17:54:45.383Z,97829.38
2023-05-02T17:57:14.717Z,97837.13
2023-05-02T17:59:44.470Z,97810.28
2023-05-02T18:02:12.821Z,97829.31
2023-05-02T18:04:43.430Z,97771.69
2023-05-02T18:07:13.637Z,97774.94
2023-05-02T18:09:41.850Z,97822.22
2023-05-02T18:12:10.112Z,97803.31
2023-05-02T18:14:38.363Z,97828.34
2023-05-02T18:17:09.878Z,97818.75
2023-05-02T18:19:38.477Z,97811.94
2023-05-02T18:22:07.386Z,97844.91
2023-05-02T18:24:36.420Z,97842.38
2023-05-02T18:27:05.274Z,97844.59
2023-05-02T18:29:37.302Z,97838.56
2023-05-02T18:32:06.124Z,97848.00
2023-05-02T18:34:38.810Z,97858.56
2023-05-02T18:37:41.286Z,97864.69
2023-05-02T18:40:10.815Z,97692.41
2023-05-02T18:42:39.050Z,97835.94
2023-05-02T18:45:08.374Z,97874.50
2023-05-02T18:47:38.759Z,97882.41
2023-05-02T18:50:09.983Z,97887.66
2023-05-02T18:52:38.267Z,97880.88
2023-05-02T18:55:07.568Z,97865.84
2023-05-02T18:57:36.301Z,97858.22
2023-05-02T19:00:06.603Z,97896.75
2023-05-02T19:02:35.143Z,97887.28
2023-05-02T19:05:06.695Z,97889.91
2023-05-02T19:07:38.447Z,97900.22
2023-05-02T19:10:07.690Z,97899.56
2023-05-02T19:12:35.896Z,97895.16
2023-05-02T19:15:05.171Z,97838.56
2023-05-02T19:17:33.653Z,97903.97
2023-05-02T19:20:02.059Z,97902.38
2023-05-02T19:22:32.271Z,97903.91
2023-05-02T19:25:02.326Z,97913.56
2023-05-02T19:27:30.962Z,97916.81
2023-05-02T19:29:59.699Z,97924.69
2023-05-02T19:32:28.346Z,97912.78
2023-05-02T19:34:56.956Z,97924.63
2023-05-02T19:37:25.867Z,97931.53
2023-05-02T19:39:54.581Z,97916.88
2023-05-02T19:42:24.642Z,97935.81
2023-05-02T19:44:54.589Z,97860.34
2023-05-02T19:47:23.406Z,97834.69
2023-05-02T19:49:52.749Z,97942.13
2023-05-02T19:52:21.116Z,97899.94
2023-05-02T19:54:52.143Z,97893.28
2023-05-02T19:57:20.425Z,97944.81
2023-05-02T19:59:50.123Z,97949.19
2023-05-02T20:02:18.430Z,97878.13
2023-05-02T20:04:46.788Z,97946.38
2023-05-02T20:07:15.098Z,97958.75
2023-05-02T20:09:44.051Z,97923.75
2023-05-02T20:12:13.296Z,97968.00
2023-05-02T20:14:45.720Z,97871.06
2023-05-02T20:17:16.177Z,97968.31
2023-05-02T20:19:45.502Z,97974.44
2023-05-02T20:22:13.935Z,97969.81
2023-05-02T20:24:42.220Z,97913.09
2023-05-02T20:27:10.452Z,97975.97
2023-05-02T20:29:38.943Z,97969.69
2023-05-02T20:32:08.469Z,97864.63
2023-05-02T20:34:39.348Z,97955.91
2023-05-02T20:37:08.805Z,97933.94
2023-05-02T20:39:37.484Z,97956.22
2023-05-02T20:42:05.767Z,97974.19
2023-05-02T20:44:34.816Z,97914.75
2023-05-02T20:47:03.666Z,97925.09
2023-05-02T20:49:32.620Z,97963.69
2023-05-02T20:52:05.214Z,97923.44
2023-05-02T20:54:33.521Z,97968.25
2023-05-02T20:57:03.908Z,97867.53
2023-05-02T20:59:32.471Z,97949.97
2023-05-02T21:02:00.674Z,97974.03
2023-05-02T21:04:28.890Z,97945.75
2023-05-02T21:06:57.657Z,97952.69
2023-05-02T21:09:27.347Z,97977.56
2023-05-02T21:11:55.661Z,97970.41
2023-05-02T21:14:25.704Z,97940.44
2023-05-02T21:16:54.176Z,97975.59
2023-05-02T21:19:22.434Z,97900.16
2023-05-02T21:21:50.872Z,97935.53
2023-05-02T21:24:19.196Z,97965.47
2023-05-02T21:26:48.910Z,97979.97
2023-05-02T21:29:17.303Z,97988.00
2023-05-02T21:31:46.428Z,97896.00
2023-05-02T21:34:15.326Z,97983.59
2023-05-02T21:36:45.706Z,97895.00
2023-05-02T21:39:13.911Z,97962.03
2023-05-02T21:41:42.213Z,97976.69
2023-05-02T21:44:14.397Z,97988.63
2023-05-02T21:46:42.733Z,97998.34
2023-05-02T21:49:10.965Z,98000.00
2023-05-02T21:51:40.810Z,98004.34
2023-05-02T21:54:09.326Z,98005.19
2023-05-02T21:56:37.498Z,98003.47
2023-05-02T21:59:05.661Z,98004.03
2023-05-02T22:01:35.214Z,97988.03
2023-05-02T22:04:03.396Z,97993.28
2023-05-02T22:06:32.845Z,98007.19
2023-05-02T22:09:01.457Z,97953.31
2023-05-02T22:11:31.595Z,98006.88
2023-05-02T22:13:59.833Z,97995.44
2023-05-02T22:16:28.160Z,98014.47
2023-05-02T22:18:58.255Z,98015.44
2023-05-02T22:21:27.354Z,98015.50
2023-05-02T22:23:55.700Z,98021.66
2023-05-02T22:26:24.679Z,98019.25
2023-05-02T22:28:52.962Z,98018.69
2023-05-02T22:31:21.640Z,98019.00
2023-05-02T22:33:50.330Z,98016.34
2023-05-02T22:36:20.554Z,98018.16
2023-05-02T22:38:48.734Z,98018.31
2023-05-02T22:41:16.957Z,97996.06
2023-05-02T22:43:45.104Z,98019.22
2023-05-02T22:46:13.360Z,98024.63
2023-05-02T22:48:41.581Z,98016.03
2023-05-02T22:51:09.867Z,98007.50
2023-05-02T22:53:40.319Z,98026.50
2023-05-02T22:56:08.715Z,98030.81
2023-05-02T22:58:36.891Z,98022.00
2023-05-02T23:01:05.260Z,98012.75
2023-05-02T23:03:33.573Z,98025.94
2023-05-02T23:06:01.872Z,98000.06
2023-05-02T23:08:30.157Z,97988.72
2023-05-02T23:10:59.874Z,98025.94
2023-05-02T23:13:28.061Z,98021.69
2023-05-02T23:15:56.920Z,98005.19
2023-05-02T23:18:25.237Z,98026.94
2023-05-02T23:20:53.474Z,98015.75
2023-05-02T23:23:21.636Z,98021.03
2023-05-02T23:25:50.066Z,98005.44
2023-05-02T23:28:19.672Z,98019.28
2023-05-02T23:30:48.402Z,98011.34
2023-05-02T23:33:17.015Z,98012.28
2023-05-02T23:35:45.348Z,97977.75
2023-05-02T23:38:14.268Z,98007.94
2023-05-02T23:40:42.515Z,98008.72
2023-05-02T23:43:11.224Z,98006.09
2023-05-02T23:45:41.122Z,98006.06
2023-05-02T23:48:09.387Z,98007.81
2023-05-02T23:50:37.530Z,98011.41
2023-05-02T23:53:07.722Z,97989.06
2023-05-02T23:55:35.909Z,98004.44
2023-05-02T23:58:04.101Z,98006.16
